Time;durP1;ratioP1;P1;durP2;ratioP2;P2;SDS_P1;SDS_P2;PMS_P1;PMS_P2;Temp;Humidity;BMP_temperature;BMP_pressure;BME280_temperature;BME280_humidity;BME280_pressure;Samples;Min_cycle;Max_cycle;Signal;HPM_P1;HPM_P2
2022/11/29 00:01:20;;;;;;;3.38;3.08;;;17.70;66.30;;;;;;5034627;28;20181;-70
2022/11/29 00:03:46;;;;;;;3.45;3.15;;;17.70;66.30;;;;;;5034695;28;20175;-68
2022/11/29 00:06:16;;;;;;;3.90;3.60;;;17.70;66.40;;;;;;5017436;28;20221;-70
2022/11/29 00:08:43;;;;;;;3.42;3.13;;;17.70;66.40;;;;;;5033797;28;20175;-70
2022/11/29 00:14:13;;;;;;;4.00;3.70;;;17.70;66.30;;;;;;5033748;28;20197;-69
2022/11/29 00:16:40;;;;;;;3.90;3.60;;;17.70;66.30;;;;;;5033429;28;20194;-70
2022/11/29 00:19:07;;;;;;;3.95;3.20;;;17.70;66.30;;;;;;5033611;28;20180;-70
2022/11/29 00:21:32;;;;;;;3.65;3.35;;;17.70;66.20;;;;;;5033546;28;20211;-69
2022/11/29 00:23:58;;;;;;;3.60;3.30;;;17.70;66.30;;;;;;5017022;28;20232;-70
2022/11/29 00:26:24;;;;;;;3.30;3.10;;;17.70;66.20;;;;;;5033502;28;20198;-70
2022/11/29 00:28:50;;;;;;;3.60;3.30;;;17.70;66.30;;;;;;5033706;28;20170;-70
2022/11/29 00:31:18;;;;;;;3.70;3.40;;;17.70;66.30;;;;;;5051170;28;20186;-69
2022/11/29 00:33:44;;;;;;;3.30;3.10;;;17.70;66.30;;;;;;5033500;28;20226;-70
2022/11/29 00:36:10;;;;;;;3.38;3.08;;;17.70;66.30;;;;;;5051084;28;20236;-70
2022/11/29 00:38:36;;;;;;;3.33;3.03;;;17.70;66.40;;;;;;5033563;28;20174;-70
2022/11/29 00:41:02;;;;;;;3.50;3.20;;;17.70;66.40;;;;;;5017221;28;20189;-69
2022/11/29 00:43:28;;;;;;;3.85;3.55;;;17.70;66.40;;;;;;5033281;28;20244;-69
2022/11/29 00:45:54;;;;;;;3.60;3.30;;;17.70;66.40;;;;;;5033239;28;20289;-70
2022/11/29 00:48:20;;;;;;;3.65;3.35;;;17.70;66.40;;;;;;5050976;28;20175;-70
2022/11/29 00:50:45;;;;;;;3.78;3.47;;;17.70;66.40;;;;;;5016747;28;20251;-68
2022/11/29 00:53:11;;;;;;;3.47;3.13;;;17.70;66.40;;;;;;5032840;28;20179;-70
2022/11/29 00:55:37;;;;;;;3.40;3.10;;;17.70;67.10;;;;;;5033096;28;20210;-70
2022/11/29 00:58:03;;;;;;;3.38;3.08;;;17.70;66.40;;;;;;5032958;28;20182;-70
2022/11/29 01:00:28;;;;;;;3.60;3.10;;;17.70;66.40;;;;;;5016554;28;20190;-69
2022/11/29 01:02:54;;;;;;;3.33;3.03;;;17.70;66.40;;;;;;5033019;28;20202;-70
2022/11/29 01:05:20;;;;;;;3.42;3.03;;;17.70;66.40;;;;;;4994430;28;1102957;-70
2022/11/29 01:07:46;;;;;;;3.40;3.10;;;17.70;66.40;;;;;;5051642;28;20178;-69
2022/11/29 01:10:11;;;;;;;3.53;3.20;;;17.70;66.40;;;;;;5036532;28;20201;-69
2022/11/29 01:12:38;;;;;;;3.30;3.00;;;17.70;66.40;;;;;;5037477;28;20214;-70
2022/11/29 01:15:06;;;;;;;3.50;3.20;;;17.70;66.40;;;;;;5037914;28;20225;-70
2022/11/29 01:17:37;;;;;;;3.97;3.67;;;17.70;66.40;;;;;;5037451;28;20215;-70
2022/11/29 01:20:06;;;;;;;3.05;2.85;;;17.70;66.40;;;;;;5037331;28;20179;-70
2022/11/29 01:22:34;;;;;;;3.60;3.30;;;17.70;66.40;;;;;;5053776;28;20213;-69
2022/11/29 01:25:00;;;;;;;3.75;3.45;;;17.70;66.40;;;;;;5054090;28;20175;-70
2022/11/29 01:27:25;;;;;;;3.58;3.28;;;17.70;66.50;;;;;;5054186;28;20233;-70
2022/11/29 01:29:51;;;;;;;3.85;3.10;;;17.70;66.50;;;;;;5037330;28;20185;-69
2022/11/29 01:32:17;;;;;;;3.20;2.90;;;17.70;66.40;;;;;;5037154;28;20178;-70
2022/11/29 01:34:43;;;;;;;2.97;2.78;;;17.70;66.40;;;;;;5053833;28;20194;-70
2022/11/29 01:37:09;;;;;;;3.75;2.90;;;17.70;66.50;;;;;;5053964;28;20215;-69
2022/11/29 01:39:34;;;;;;;3.13;2.75;;;17.70;66.50;;;;;;5037115;28;20182;-69
2022/11/29 01:42:01;;;;;;;3.08;2.88;;;17.70;66.50;;;;;;5054912;28;20213;-69
2022/11/29 01:44:27;;;;;;;3.42;3.13;;;17.70;66.50;;;;;;5033684;28;20745;-70
2022/11/29 01:46:54;;;;;;;3.00;2.70;;;17.70;66.50;;;;;;5016969;28;20211;-69
2022/11/29 01:49:26;;;;;;;3.00;2.80;;;17.70;66.50;;;;;;5017494;28;20187;-70
2022/11/29 01:51:59;;;;;;;2.88;2.60;;;17.70;66.50;;;;;;5033459;28;20213;-69
2022/11/29 01:54:28;;;;;;;3.03;2.83;;;17.70;66.50;;;;;;5033260;28;20295;-70
2022/11/29 01:56:55;;;;;;;3.10;2.80;;;17.70;66.50;;;;;;5036574;28;20217;-70
2022/11/29 01:59:28;;;;;;;2.97;2.78;;;17.70;66.50;;;;;;5037138;28;20189;-70
2022/11/29 02:02:08;;;;;;;3.50;3.17;;;17.70;66.50;;;;;;5036670;28;20211;-69
2022/11/29 02:04:36;;;;;;;2.90;2.70;;;17.70;66.50;;;;;;5054452;28;20259;-70
2022/11/29 02:07:03;;;;;;;3.40;3.10;;;17.70;66.40;;;;;;5036693;28;20210;-70
2022/11/29 02:09:29;;;;;;;2.92;2.60;;;17.70;66.50;;;;;;5020647;28;20167;-70
2022/11/29 02:12:39;;;;;;;2.83;2.63;;;17.70;66.50;;;;;;5035830;28;20186;-70
2022/11/29 02:15:35;;;;;;;2.70;2.50;;;17.70;66.40;;;;;;5036878;28;20288;-69
2022/11/29 02:18:28;;;;;;;3.00;2.80;;;17.70;66.50;;;;;;5054328;28;20266;-70
2022/11/29 02:21:20;;;;;;;3.38;3.05;;;17.70;66.50;;;;;;5035308;28;20289;-69
2022/11/29 02:24:09;;;;;;;2.45;2.25;;;17.70;66.50;;;;;;5019777;28;20217;-70
2022/11/29 02:27:17;;;;;;;2.72;2.53;;;17.70;66.50;;;;;;5036160;28;20301;-70
2022/11/29 02:30:18;;;;;;;2.70;2.50;;;17.70;66.50;;;;;;5054051;28;20179;-70
2022/11/29 02:33:45;;;;;;;2.50;2.30;;;17.70;67.20;;;;;;5036230;28;20186;-70
2022/11/29 02:36:49;;;;;;;2.92;2.17;;;17.70;66.50;;;;;;5036260;28;20233;-69
2022/11/29 02:39:41;;;;;;;2.60;2.40;;;17.70;66.50;;;;;;5035926;28;20190;-70
2022/11/29 02:42:47;;;;;;;2.65;2.45;;;17.70;66.50;;;;;;5035660;28;20206;-70
2022/11/29 02:45:37;;;;;;;2.92;2.72;;;17.70;66.50;;;;;;5035844;28;20185;-69
2022/11/29 02:48:28;;;;;;;2.38;2.17;;;17.70;66.50;;;;;;5036221;28;20562;-70
2022/11/29 02:51:31;;;;;;;2.60;2.08;;;17.70;66.50;;;;;;5053680;28;20173;-70
2022/11/29 02:54:21;;;;;;;2.78;2.58;;;17.70;66.50;;;;;;5000315;28;20248;-70
2022/11/29 02:56:58;;;;;;;2.60;2.40;;;17.70;66.50;;;;;;5053290;28;20861;-69
2022/11/29 02:59:45;;;;;;;2.47;2.28;;;17.70;66.50;;;;;;5019417;28;20189;-70
2022/11/29 03:02:37;;;;;;;2.55;2.35;;;17.70;66.50;;;;;;5035260;28;20297;-70
2022/11/29 03:05:15;;;;;;;2.10;1.90;;;17.70;66.50;;;;;;5019376;28;20539;-68
2022/11/29 03:08:21;;;;;;;1.95;1.85;;;17.80;66.60;;;;;;5073362;22;20234;-68
2022/11/29 03:11:28;;;;;;;2.60;2.40;;;17.70;66.50;;;;;;5051837;28;20183;-68
2022/11/29 03:14:16;;;;;;;2.00;1.90;;;17.70;66.60;;;;;;5035156;28;20170;-68
2022/11/29 03:17:12;;;;;;;2.08;1.90;;;17.70;66.60;;;;;;5052114;28;20217;-68
2022/11/29 03:20:12;;;;;;;1.98;1.88;;;17.70;66.60;;;;;;5052318;28;20190;-68
2022/11/29 03:23:02;;;;;;;2.03;1.92;;;17.70;66.50;;;;;;5051580;28;20210;-68
2022/11/29 03:25:37;;;;;;;2.00;1.80;;;17.70;66.60;;;;;;5051950;28;20181;-68
2022/11/29 03:28:21;;;;;;;2.10;2.00;;;17.70;66.60;;;;;;5066904;28;20277;-68
2022/11/29 03:31:05;;;;;;;1.90;1.77;;;17.70;66.60;;;;;;5051541;28;20187;-68
2022/11/29 03:34:04;;;;;;;2.20;2.10;;;17.70;66.50;;;;;;5051289;28;20210;-68
2022/11/29 03:36:54;;;;;;;1.92;1.80;;;17.70;66.50;;;;;;5051577;28;20255;-68
2022/11/29 03:39:32;;;;;;;1.92;1.70;;;17.70;66.60;;;;;;5068139;28;20174;-68
2022/11/29 03:42:06;;;;;;;1.75;1.63;;;17.70;66.70;;;;;;5052481;28;20198;-67
2022/11/29 03:44:49;;;;;;;2.10;1.95;;;17.70;66.60;;;;;;5051544;28;20162;-68
2022/11/29 03:47:25;;;;;;;1.70;1.60;;;17.70;66.60;;;;;;5051426;28;20241;-68
2022/11/29 03:50:13;;;;;;;2.00;1.90;;;17.70;66.60;;;;;;5051764;28;20190;-68
2022/11/29 03:53:30;;;;;;;1.70;1.60;;;17.70;66.60;;;;;;5067913;28;20332;-68
2022/11/29 03:56:01;;;;;;;2.00;1.80;;;17.70;66.60;;;;;;4971433;28;20228;-68
2022/11/29 03:58:51;;;;;;;1.80;1.70;;;17.70;66.70;;;;;;5062223;28;20198;-68
2022/11/29 04:01:47;;;;;;;1.75;1.50;;;17.70;66.70;;;;;;5051464;28;20174;-68
2022/11/29 04:04:27;;;;;;;1.65;1.55;;;17.70;66.60;;;;;;5052171;28;20178;-68
2022/11/29 04:07:53;;;;;;;1.60;1.50;;;17.70;66.60;;;;;;5052233;28;20220;-68
2022/11/29 04:10:51;;;;;;;1.60;1.50;;;17.70;66.70;;;;;;5051258;28;20186;-68
2022/11/29 04:14:02;;;;;;;1.70;1.60;;;17.70;66.60;;;;;;5050989;28;20174;-68
2022/11/29 04:17:37;;;;;;;1.55;1.30;;;17.70;66.70;;;;;;5051133;28;20202;-68
2022/11/29 04:20:35;;;;;;;1.40;1.30;;;17.70;66.70;;;;;;5051044;28;20554;-68
2022/11/29 04:23:48;;;;;;;1.60;1.30;;;17.70;66.60;;;;;;5067657;28;20202;-68
2022/11/29 04:26:19;;;;;;;1.30;1.20;;;17.70;66.70;;;;;;5050982;28;20213;-68
2022/11/29 04:29:23;;;;;;;1.90;1.50;;;17.70;66.70;;;;;;5051019;28;20171;-68
2022/11/29 04:32:15;;;;;;;1.98;1.40;;;17.70;66.60;;;;;;5050944;28;20182;-68
2022/11/29 04:35:37;;;;;;;1.35;1.25;;;17.70;66.70;;;;;;5050735;28;20201;-68
2022/11/29 04:38:36;;;;;;;1.38;1.27;;;17.70;66.70;;;;;;5067794;28;20193;-68
2022/11/29 04:41:29;;;;;;;1.40;1.30;;;17.70;66.70;;;;;;5050933;28;20175;-68
2022/11/29 04:44:27;;;;;;;1.17;1.10;;;17.70;66.80;;;;;;5052247;28;20257;-68
2022/11/29 04:47:47;;;;;;;1.40;1.30;;;17.70;66.70;;;;;;5038352;28;20242;-68
2022/11/29 04:51:19;;;;;;;1.42;1.33;;;17.70;66.80;;;;;;5055014;28;20175;-68
2022/11/29 04:54:25;;;;;;;1.60;1.50;;;17.70;66.70;;;;;;4967778;28;20260;-68
2022/11/29 04:57:13;;;;;;;2.25;1.55;;;17.70;66.80;;;;;;5037890;28;20213;-68
2022/11/29 05:00:10;;;;;;;1.52;1.42;;;17.70;66.70;;;;;;5054894;28;20178;-68
2022/11/29 05:03:05;;;;;;;1.45;1.30;;;17.70;66.80;;;;;;5054645;28;20206;-68
2022/11/29 05:06:01;;;;;;;1.23;1.13;;;17.70;66.80;;;;;;5071314;28;20205;-68
2022/11/29 05:09:23;;;;;;;1.40;1.30;;;17.70;66.80;;;;;;5037786;28;20194;-68
2022/11/29 05:12:06;;;;;;;1.50;1.40;;;17.70;66.80;;;;;;5054447;28;20175;-68
2022/11/29 05:15:11;;;;;;;1.20;1.10;;;17.70;66.80;;;;;;5054256;28;20248;-68
2022/11/29 05:18:26;;;;;;;1.10;1.00;;;17.70;66.80;;;;;;5016473;28;20712;-67
2022/11/29 05:21:15;;;;;;;1.02;1.02;;;17.70;66.80;;;;;;5026476;28;20282;-67
2022/11/29 05:24:24;;;;;;;0.95;0.90;;;17.70;66.80;;;;;;5070434;28;20207;-68
2022/11/29 05:27:41;;;;;;;1.15;1.10;;;17.70;67.60;;;;;;5054098;28;20195;-68
2022/11/29 05:30:15;;;;;;;1.17;1.08;;;17.70;66.80;;;;;;4954611;29;20217;-66
2022/11/29 05:33:13;;;;;;;1.15;1.05;;;17.70;66.80;;;;;;5021705;28;20243;-66
2022/11/29 05:36:08;;;;;;;1.48;1.25;;;17.70;66.80;;;;;;5017236;28;20195;-67
2022/11/29 05:38:47;;;;;;;1.40;1.25;;;17.70;66.80;;;;;;5033901;28;20187;-68
2022/11/29 05:42:03;;;;;;;1.27;1.17;;;17.70;66.80;;;;;;5035010;28;20258;-67
2022/11/29 05:44:47;;;;;;;1.20;1.10;;;17.70;66.80;;;;;;5017239;28;20198;-68
2022/11/29 05:47:22;;;;;;;1.17;1.00;;;17.70;66.90;;;;;;5017418;28;20234;-68
2022/11/29 05:50:21;;;;;;;1.77;1.08;;;17.70;66.90;;;;;;5033768;28;20631;-68
2022/11/29 05:53:20;;;;;;;1.77;1.20;;;17.70;66.80;;;;;;5039516;28;20225;-68
2022/11/29 05:56:26;;;;;;;0.90;0.90;;;17.70;66.80;;;;;;5036454;28;20191;-68
2022/11/29 05:59:11;;;;;;;1.42;1.20;;;17.70;66.80;;;;;;5070476;28;20177;-68
2022/11/29 06:02:21;;;;;;;0.93;0.82;;;17.70;66.90;;;;;;5054624;28;20646;-67
2022/11/29 06:04:58;;;;;;;0.95;0.93;;;17.70;66.90;;;;;;5030691;28;20198;-67
2022/11/29 06:07:32;;;;;;;0.95;0.88;;;17.70;66.80;;;;;;5053735;28;20359;-68
2022/11/29 06:10:18;;;;;;;1.38;1.27;;;17.70;66.80;;;;;;5036815;28;20182;-67
2022/11/29 06:13:32;;;;;;;1.17;1.08;;;17.70;66.90;;;;;;5052905;28;20178;-67
2022/11/29 06:16:22;;;;;;;1.30;1.20;;;17.70;66.90;;;;;;5052646;28;20213;-68
2022/11/29 06:19:34;;;;;;;1.10;1.00;;;17.70;66.90;;;;;;5052544;28;20277;-67
2022/11/29 06:22:19;;;;;;;1.27;1.05;;;17.70;67.00;;;;;;5052252;28;20251;-68
2022/11/29 06:25:08;;;;;;;1.73;1.10;;;17.70;67.00;;;;;;5052394;28;20196;-68
2022/11/29 06:27:52;;;;;;;0.88;0.82;;;17.70;67.00;;;;;;5035748;28;20206;-68
2022/11/29 06:30:28;;;;;;;1.30;1.20;;;17.70;67.00;;;;;;5052774;28;20572;-68
2022/11/29 06:33:14;;;;;;;1.30;1.20;;;17.70;67.00;;;;;;5053554;28;20186;-68
2022/11/29 06:36:30;;;;;;;1.25;1.15;;;17.70;67.00;;;;;;5035779;28;20209;-68
2022/11/29 06:38:56;;;;;;;2.10;1.00;;;17.70;67.00;;;;;;5068699;28;20236;-68
2022/11/29 06:41:24;;;;;;;1.05;1.02;;;17.70;67.00;;;;;;5035548;28;20182;-68
2022/11/29 06:43:50;;;;;;;1.27;1.10;;;17.70;67.00;;;;;;5035147;28;20228;-68
2022/11/29 06:46:44;;;;;;;1.85;1.08;;;17.70;67.00;;;;;;5051949;28;20237;-68
2022/11/29 06:49:26;;;;;;;1.73;1.20;;;17.70;67.00;;;;;;5035421;28;20190;-68
2022/11/29 06:52:18;;;;;;;1.63;1.30;;;17.70;67.00;;;;;;5035737;28;20226;-68
2022/11/29 06:55:04;;;;;;;1.73;1.27;;;17.70;67.00;;;;;;5035352;28;20193;-68
2022/11/29 06:57:55;;;;;;;1.25;1.00;;;17.70;67.00;;;;;;5051978;28;20213;-68
2022/11/29 07:00:25;;;;;;;1.30;1.20;;;17.70;67.00;;;;;;5035317;28;20324;-68
2022/11/29 07:03:20;;;;;;;1.92;1.00;;;17.70;67.00;;;;;;5052683;28;20216;-68
2022/11/29 07:05:46;;;;;;;1.08;1.00;;;17.70;67.00;;;;;;5068014;28;20182;-68
2022/11/29 07:08:17;;;;;;;1.75;1.02;;;17.70;67.00;;;;;;5049044;28;20321;-68
2022/11/29 07:10:48;;;;;;;1.42;1.00;;;17.70;67.00;;;;;;5068280;28;20273;-68
2022/11/29 07:13:15;;;;;;;1.10;1.00;;;17.70;67.00;;;;;;5067979;28;20190;-68
2022/11/29 07:16:06;;;;;;;2.67;1.42;;;17.70;67.00;;;;;;5034817;28;20194;-68
2022/11/29 07:18:57;;;;;;;0.95;0.93;;;17.70;67.00;;;;;;5051594;28;20190;-68
2022/11/29 07:21:56;;;;;;;1.27;1.02;;;17.70;67.10;;;;;;5051360;28;20186;-68
2022/11/29 07:25:09;;;;;;;1.58;1.23;;;17.70;67.00;;;;;;5034446;28;20210;-68
2022/11/29 07:27:52;;;;;;;1.25;1.17;;;17.70;67.00;;;;;;5034683;28;20213;-69
2022/11/29 07:30:20;;;;;;;2.10;1.35;;;17.70;67.00;;;;;;5067991;28;20203;-68
2022/11/29 07:33:07;;;;;;;1.80;1.20;;;17.70;67.10;;;;;;5052144;28;20178;-68
2022/11/29 07:36:02;;;;;;;2.10;1.45;;;17.70;67.10;;;;;;5051125;28;20672;-67
2022/11/29 07:38:51;;;;;;;1.58;1.10;;;17.70;67.10;;;;;;5051271;28;20273;-68
2022/11/29 07:41:58;;;;;;;1.38;1.10;;;17.70;67.10;;;;;;5052469;28;20209;-68
2022/11/29 07:44:52;;;;;;;1.85;1.13;;;17.70;67.10;;;;;;5050378;28;20255;-68
2022/11/29 07:47:18;;;;;;;1.48;1.13;;;17.70;67.10;;;;;;5034200;28;20289;-68
2022/11/29 07:49:44;;;;;;;1.77;1.30;;;17.70;67.10;;;;;;5034435;28;20202;-68
2022/11/29 07:52:13;;;;;;;1.13;1.02;;;17.70;67.10;;;;;;5050967;28;20186;-69
2022/11/29 07:54:39;;;;;;;1.80;1.00;;;17.70;67.10;;;;;;5034226;28;20187;-68
2022/11/29 07:57:05;;;;;;;1.10;1.00;;;17.70;67.10;;;;;;5051848;28;20264;-68
2022/11/29 07:59:31;;;;;;;1.00;0.90;;;17.70;67.10;;;;;;5034164;28;20202;-68
2022/11/29 08:01:57;;;;;;;1.75;1.20;;;17.70;67.10;;;;;;5050790;28;20218;-68
2022/11/29 08:04:23;;;;;;;1.63;1.10;;;17.70;67.10;;;;;;5033992;28;20187;-68
2022/11/29 08:06:49;;;;;;;2.35;1.25;;;17.70;67.10;;;;;;5050342;28;20216;-68
2022/11/29 08:09:15;;;;;;;1.67;1.25;;;17.70;67.10;;;;;;5050780;28;20186;-69
2022/11/29 08:11:40;;;;;;;1.35;1.00;;;17.70;67.10;;;;;;5033828;28;20189;-68
2022/11/29 08:14:06;;;;;;;2.10;1.30;;;17.70;67.10;;;;;;5033755;28;20183;-68
2022/11/29 08:16:32;;;;;;;2.38;1.48;;;17.70;67.20;;;;;;5050548;28;20293;-68
2022/11/29 08:18:59;;;;;;;1.75;1.27;;;17.70;67.20;;;;;;5049699;28;20186;-68
2022/11/29 08:21:25;;;;;;;1.77;1.33;;;17.70;67.20;;;;;;5050494;28;20228;-68
2022/11/29 08:23:51;;;;;;;2.63;1.20;;;17.70;67.20;;;;;;5033678;28;20206;-68
2022/11/29 08:26:19;;;;;;;3.13;1.33;;;17.70;67.20;;;;;;5051532;28;20209;-68
2022/11/29 08:28:47;;;;;;;2.92;1.52;;;17.70;67.20;;;;;;5067392;28;20229;-68
2022/11/29 08:31:13;;;;;;;1.63;1.35;;;17.70;67.20;;;;;;5050548;28;20213;-68
2022/11/29 08:33:41;;;;;;;1.38;1.20;;;17.70;68.00;;;;;;5051372;28;20187;-68
2022/11/29 08:36:15;;;;;;;1.92;1.20;;;17.70;67.20;;;;;;5050336;28;20210;-68
2022/11/29 08:38:42;;;;;;;1.20;1.08;;;17.70;67.20;;;;;;5050372;28;20174;-68
2022/11/29 08:41:12;;;;;;;1.85;1.33;;;17.70;67.20;;;;;;5051521;28;20221;-68
2022/11/29 08:43:38;;;;;;;1.17;0.90;;;17.70;67.20;;;;;;5033423;28;20221;-68
2022/11/29 08:46:04;;;;;;;1.67;1.20;;;17.70;67.20;;;;;;5050214;28;20213;-68
2022/11/29 08:48:31;;;;;;;2.95;1.20;;;17.80;67.30;;;;;;5050357;28;20182;-68
2022/11/29 08:50:56;;;;;;;1.73;1.48;;;17.70;67.20;;;;;;5067053;28;20186;-68
2022/11/29 08:53:42;;;;;;;2.25;1.08;;;17.70;67.20;;;;;;5050042;28;20186;-68
2022/11/29 08:56:15;;;;;;;1.58;1.17;;;17.70;67.20;;;;;;5033553;28;20206;-68
2022/11/29 08:58:41;;;;;;;1.52;1.08;;;17.70;67.20;;;;;;5050218;28;20183;-68
2022/11/29 09:01:17;;;;;;;1.33;1.00;;;17.70;67.20;;;;;;5051370;28;20179;-68
2022/11/29 09:04:04;;;;;;;1.88;1.20;;;17.70;67.20;;;;;;5051100;28;20233;-68
2022/11/29 09:06:36;;;;;;;1.27;1.20;;;17.70;67.20;;;;;;5059581;22;20227;-70
2022/11/29 09:09:03;;;;;;;1.55;1.13;;;17.80;67.30;;;;;;5053425;28;20209;-70
2022/11/29 09:11:32;;;;;;;1.50;1.23;;;17.80;67.30;;;;;;5036778;28;20209;-70
2022/11/29 09:14:02;;;;;;;1.55;1.08;;;17.70;67.20;;;;;;5053079;28;20277;-70
2022/11/29 09:16:32;;;;;;;1.80;1.00;;;17.70;67.20;;;;;;5041719;28;20209;-70
2022/11/29 09:18:58;;;;;;;1.20;1.08;;;17.70;67.30;;;;;;5036780;28;20251;-70
2022/11/29 09:21:27;;;;;;;1.10;1.00;;;17.70;67.30;;;;;;5036593;28;20564;-70
2022/11/29 09:23:57;;;;;;;1.48;1.00;;;17.70;67.20;;;;;;5052979;28;20213;-70
2022/11/29 09:26:28;;;;;;;1.08;0.98;;;17.80;67.30;;;;;;5069964;28;20193;-70
2022/11/29 09:28:54;;;;;;;1.65;1.15;;;17.70;67.20;;;;;;5036621;28;20185;-70
2022/11/29 09:31:20;;;;;;;1.42;1.00;;;17.80;67.40;;;;;;5055510;28;20188;-70
2022/11/29 09:33:47;;;;;;;1.63;1.40;;;17.70;67.30;;;;;;5056725;28;20205;-70
2022/11/29 09:36:14;;;;;;;2.20;1.02;;;17.80;67.30;;;;;;5056697;28;20657;-70
2022/11/29 09:38:40;;;;;;;1.73;1.02;;;17.70;67.30;;;;;;5039960;28;20200;-70
2022/11/29 09:41:41;;;;;;;1.40;1.10;;;17.70;67.30;;;;;;5072389;28;20182;-70
2022/11/29 09:44:45;;;;;;;1.38;1.00;;;17.80;67.40;;;;;;5045815;28;20225;-70
2022/11/29 09:47:50;;;;;;;1.95;1.40;;;17.80;67.40;;;;;;5025868;28;20298;-70
2022/11/29 09:50:35;;;;;;;1.73;1.00;;;17.80;67.30;;;;;;5056696;28;20246;-70
2022/11/29 09:53:47;;;;;;;0.80;0.70;;;17.80;67.40;;;;;;5074302;28;20182;-70
2022/11/29 09:56:29;;;;;;;1.77;1.15;;;17.80;67.40;;;;;;5039511;28;20276;-70
2022/11/29 09:59:03;;;;;;;1.50;1.27;;;17.80;67.40;;;;;;5056570;28;20182;-70
2022/11/29 10:01:37;;;;;;;1.38;1.27;;;17.70;67.30;;;;;;5072780;28;20220;-70
2022/11/29 10:04:15;;;;;;;1.65;1.35;;;17.80;67.40;;;;;;5039682;28;20288;-70
2022/11/29 10:06:49;;;;;;;1.75;1.10;;;17.80;67.40;;;;;;5056031;28;20213;-70
2022/11/29 10:09:32;;;;;;;1.33;0.95;;;17.80;67.40;;;;;;5056244;28;20196;-70
2022/11/29 10:12:35;;;;;;;1.30;1.20;;;17.80;67.50;;;;;;5040015;28;20212;-70
2022/11/29 10:15:17;;;;;;;2.42;1.40;;;17.80;67.50;;;;;;5056527;28;20207;-70
2022/11/29 10:17:57;;;;;;;1.63;1.17;;;17.80;67.40;;;;;;5073301;28;20200;-70
2022/11/29 10:20:30;;;;;;;1.67;1.00;;;17.80;67.50;;;;;;5056477;28;20177;-71
2022/11/29 10:23:35;;;;;;;1.90;1.20;;;17.80;67.50;;;;;;5056249;28;20212;-70
2022/11/29 10:26:06;;;;;;;1.63;1.02;;;17.80;67.50;;;;;;5056227;28;20207;-70
2022/11/29 10:28:35;;;;;;;1.60;1.23;;;17.80;67.50;;;;;;5039651;28;20250;-71
2022/11/29 10:31:48;;;;;;;1.25;1.15;;;17.80;67.50;;;;;;5039042;28;20182;-71
2022/11/29 10:34:21;;;;;;;1.20;1.10;;;17.80;67.40;;;;;;5056070;28;20284;-70
2022/11/29 10:36:58;;;;;;;1.90;1.42;;;17.80;67.50;;;;;;5055949;28;20214;-70
2022/11/29 10:39:43;;;;;;;2.28;1.05;;;17.80;67.50;;;;;;5056280;28;20181;-70
2022/11/29 10:45:29;;;;;;;2.50;1.52;;;17.80;67.50;;;;;;5073510;28;20186;-70
2022/11/29 10:48:18;;;;;;;2.30;1.90;;;17.80;67.60;;;;;;5039038;28;20245;-71
2022/11/29 10:50:48;;;;;;;3.53;2.28;;;17.80;67.60;;;;;;5055820;28;20227;-70
2022/11/29 10:53:17;;;;;;;3.78;2.55;;;17.80;67.50;;;;;;5056127;28;20240;-71
2022/11/29 10:56:29;;;;;;;3.20;2.30;;;17.80;67.50;;;;;;5055203;28;20224;-70
2022/11/29 10:59:03;;;;;;;4.25;3.40;;;17.80;67.60;;;;;;5046560;28;20206;-70
2022/11/29 11:01:41;;;;;;;6.22;3.67;;;17.80;67.50;;;;;;5055609;28;20200;-70
2022/11/29 11:04:19;;;;;;;6.05;4.35;;;17.80;67.50;;;;;;5064130;28;20193;-70
2022/11/29 11:06:51;;;;;;;6.07;4.32;;;17.70;67.40;;;;;;5065089;28;20209;-69
2022/11/29 11:09:47;;;;;;;8.52;5.93;;;17.70;67.50;;;;;;5055463;28;20182;-72
2022/11/29 11:12:12;;;;;;;7.78;5.50;;;17.80;67.60;;;;;;5038075;28;20182;-69
2022/11/29 11:14:39;;;;;;;7.10;5.15;;;17.80;67.60;;;;;;5055288;28;20550;-70
2022/11/29 11:17:31;;;;;;;9.10;6.35;;;17.70;67.50;;;;;;5055030;28;20288;-70
2022/11/29 11:20:03;;;;;;;9.48;6.50;;;17.80;67.60;;;;;;5029824;28;20166;-70
2022/11/29 11:22:31;;;;;;;10.32;7.50;;;17.70;67.50;;;;;;5055031;28;20205;-71
2022/11/29 11:25:24;;;;;;;11.82;8.32;;;17.80;67.60;;;;;;5055024;28;20181;-70
2022/11/29 11:27:50;;;;;;;13.45;9.23;;;17.80;67.60;;;;;;5038469;28;20205;-70
2022/11/29 11:30:27;;;;;;;15.10;10.13;;;17.80;67.70;;;;;;5038587;28;20182;-70
2022/11/29 11:33:27;;;;;;;12.45;9.55;;;17.80;67.60;;;;;;5072874;28;20256;-71
2022/11/29 11:36:12;;;;;;;14.38;10.38;;;17.80;67.70;;;;;;5054804;28;20277;-71
2022/11/29 11:38:49;;;;;;;15.48;10.65;;;17.80;67.70;;;;;;5055278;28;20629;-70
2022/11/29 11:41:19;;;;;;;15.43;10.68;;;17.80;67.70;;;;;;5038358;28;20284;-71
2022/11/29 11:43:58;;;;;;;17.65;11.85;;;17.80;67.70;;;;;;5054722;28;20689;-71
2022/11/29 11:46:49;;;;;;;19.70;11.63;;;17.80;67.70;;;;;;5038097;28;20190;-70
2022/11/29 11:49:48;;;;;;;17.40;12.13;;;17.80;67.70;;;;;;5054675;28;20228;-71
2022/11/29 11:52:43;;;;;;;19.20;12.80;;;17.80;67.80;;;;;;5039963;28;20208;-70
2022/11/29 11:55:22;;;;;;;19.17;12.20;;;17.70;67.70;;;;;;5054489;28;20193;-71
2022/11/29 11:58:11;;;;;;;19.20;12.73;;;17.80;67.80;;;;;;5054837;28;20221;-70
2022/11/29 12:00:40;;;;;;;17.73;13.23;;;17.80;67.70;;;;;;5057581;28;20190;-71
2022/11/29 12:03:22;;;;;;;21.00;14.35;;;17.80;67.80;;;;;;5034526;28;20198;-70
2022/11/29 12:05:54;;;;;;;21.30;13.52;;;17.80;67.80;;;;;;5035011;28;20193;-70
2022/11/29 12:08:22;;;;;;;19.88;13.95;;;17.80;67.80;;;;;;5049187;28;20271;-71
2022/11/29 12:10:54;;;;;;;20.27;14.25;;;17.70;67.70;;;;;;5034521;28;20246;-70
2022/11/29 12:13:29;;;;;;;19.00;13.63;;;17.80;67.90;;;;;;5048278;28;20642;-70
2022/11/29 12:16:01;;;;;;;21.63;14.18;;;17.80;67.90;;;;;;5054526;28;20633;-70
2022/11/29 12:18:52;;;;;;;21.73;15.27;;;17.80;67.90;;;;;;5053100;28;20205;-70
2022/11/29 12:21:36;;;;;;;22.33;15.32;;;17.80;67.90;;;;;;5044582;28;20198;-71
2022/11/29 12:24:28;;;;;;;25.70;16.42;;;17.80;67.90;;;;;;5029224;28;20227;-70
2022/11/29 12:27:01;;;;;;;21.75;15.40;;;17.80;67.90;;;;;;5070457;28;20697;-70
2022/11/29 12:29:32;;;;;;;21.52;16.33;;;17.80;67.90;;;;;;5054385;28;20256;-70
2022/11/29 12:32:16;;;;;;;24.33;16.13;;;17.80;67.90;;;;;;5037660;28;20181;-70
2022/11/29 12:35:39;;;;;;;22.17;15.85;;;17.80;67.90;;;;;;5037389;28;20189;-70
2022/11/29 12:38:28;;;;;;;24.35;16.30;;;17.80;67.90;;;;;;5054049;28;20209;-70
2022/11/29 12:41:24;;;;;;;21.13;15.77;;;17.80;67.90;;;;;;5054138;28;20231;-70
2022/11/29 12:44:39;;;;;;;23.75;16.60;;;17.80;67.90;;;;;;5037440;28;20688;-70
2022/11/29 12:47:23;;;;;;;24.85;16.23;;;17.80;68.00;;;;;;5046881;28;20355;-70
2022/11/29 12:50:34;;;;;;;23.67;16.67;;;17.80;68.00;;;;;;5054158;28;20284;-70
2022/11/29 12:53:40;;;;;;;24.10;16.17;;;17.80;68.00;;;;;;5037526;28;20188;-70
2022/11/29 12:56:39;;;;;;;23.08;17.27;;;17.80;68.00;;;;;;5053693;28;20208;-70
2022/11/29 12:59:53;;;;;;;25.15;17.67;;;17.80;67.90;;;;;;5037460;28;20188;-70
2022/11/29 13:02:40;;;;;;;23.02;16.40;;;17.80;68.10;;;;;;5037260;28;20209;-70
2022/11/29 13:05:17;;;;;;;23.80;17.35;;;17.80;68.00;;;;;;5072415;28;20196;-70
2022/11/29 13:08:04;;;;;;;24.88;17.15;;;17.80;68.10;;;;;;5057692;28;20205;-70
2022/11/29 13:11:09;;;;;;;25.20;17.02;;;17.80;68.10;;;;;;5057806;28;20174;-71
2022/11/29 13:14:12;;;;;;;25.83;16.95;;;17.80;68.10;;;;;;5040844;28;20189;-71
2022/11/29 13:17:00;;;;;;;24.75;17.13;;;17.80;68.10;;;;;;5057533;28;20220;-71
2022/11/29 13:19:48;;;;;;;26.27;17.90;;;17.80;68.10;;;;;;5057915;28;20184;-71
2022/11/29 13:22:34;;;;;;;24.73;17.92;;;17.80;68.10;;;;;;5057601;28;20214;-71
2022/11/29 13:25:32;;;;;;;23.35;17.20;;;17.80;68.10;;;;;;5075398;28;20678;-71
2022/11/29 13:28:15;;;;;;;24.60;17.30;;;17.80;68.10;;;;;;5057462;28;20259;-71
2022/11/29 13:30:41;;;;;;;24.02;17.00;;;17.80;68.10;;;;;;5057366;28;20173;-71
2022/11/29 13:33:57;;;;;;;23.20;17.33;;;17.80;68.10;;;;;;5074041;28;20189;-71
2022/11/29 13:36:41;;;;;;;23.90;17.20;;;17.80;68.10;;;;;;5056285;28;20200;-71
2022/11/29 13:39:21;;;;;;;24.70;17.17;;;17.80;68.10;;;;;;5057279;28;20203;-72
2022/11/29 13:42:18;;;;;;;24.55;17.73;;;17.80;68.10;;;;;;5057109;28;20200;-71
2022/11/29 13:45:02;;;;;;;24.77;17.85;;;17.80;68.20;;;;;;5040164;28;20247;-71
2022/11/29 13:47:28;;;;;;;22.92;17.20;;;17.80;68.30;;;;;;5074842;28;20201;-71
2022/11/29 13:50:01;;;;;;;24.88;17.48;;;17.80;68.20;;;;;;5040270;28;20216;-71
2022/11/29 13:52:35;;;;;;;26.35;18.02;;;17.80;68.30;;;;;;5040246;28;20185;-71
2022/11/29 13:55:10;;;;;;;28.00;17.60;;;17.80;68.20;;;;;;5039991;28;20189;-72
2022/11/29 13:58:18;;;;;;;22.33;16.63;;;17.80;68.20;;;;;;5039700;28;20315;-72
2022/11/29 14:00:43;;;;;;;24.05;17.92;;;17.80;68.20;;;;;;5056463;28;20185;-72
2022/11/29 14:03:22;;;;;;;24.77;17.13;;;17.80;68.20;;;;;;5055940;28;20298;-71
2022/11/29 14:06:05;;;;;;;22.83;17.40;;;17.80;68.20;;;;;;5073892;28;20178;-72
2022/11/29 14:08:37;;;;;;;23.83;16.95;;;17.80;68.30;;;;;;5067519;28;20224;-72